createdAt,value
2018-08-06T00:01:12.101Z,20.90
2018-08-06T00:03:41.270Z,20.90
2018-08-06T00:06:11.184Z,20.80
2018-08-06T00:08:40.051Z,20.90
2018-08-06T00:11:09.018Z,21.00
2018-08-06T00:13:38.816Z,21.10
2018-08-06T00:16:09.659Z,21.10
2018-08-06T00:18:39.172Z,21.20
2018-08-06T00:21:08.454Z,21.10
2018-08-06T00:23:37.380Z,21.00
2018-08-06T00:26:06.562Z,21.10
2018-08-06T00:28:36.186Z,20.70
2018-08-06T00:31:05.102Z,20.70
2018-08-06T00:33:34.169Z,20.50
2018-08-06T00:36:02.991Z,20.80
2018-08-06T00:38:32.114Z,20.50
2018-08-06T00:41:00.863Z,20.40
2018-08-06T00:43:29.610Z,20.50
2018-08-06T00:45:58.442Z,20.60
2018-08-06T00:48:27.691Z,20.70
2018-08-06T00:50:56.757Z,20.70
2018-08-06T00:53:25.534Z,20.80
2018-08-06T00:55:55.024Z,20.60
2018-08-06T00:58:24.424Z,20.30
2018-08-06T01:00:53.187Z,20.40
2018-08-06T01:03:22.632Z,20.20
2018-08-06T01:05:51.866Z,20.20
2018-08-06T01:08:20.646Z,20.20
2018-08-06T01:10:50.275Z,20.40
2018-08-06T01:13:19.370Z,20.50
2018-08-06T01:15:48.597Z,20.20
2018-08-06T01:18:17.797Z,20.20
2018-08-06T01:20:46.639Z,20.10
2018-08-06T01:23:15.493Z,20.20
2018-08-06T01:25:44.947Z,20.10
2018-08-06T01:28:13.715Z,19.90
2018-08-06T01:30:43.183Z,19.80
2018-08-06T01:33:12.065Z,19.70
2018-08-06T01:35:40.820Z,19.80
2018-08-06T01:38:09.581Z,19.70
2018-08-06T01:40:38.346Z,19.90
2018-08-06T01:43:07.672Z,19.80
2018-08-06T01:45:36.831Z,19.70
2018-08-06T01:48:06.247Z,19.90
2018-08-06T01:50:35.032Z,19.70
2018-08-06T01:53:03.770Z,19.50
2018-08-06T01:55:32.528Z,19.40
2018-08-06T01:58:01.292Z,19.40
2018-08-06T02:00:30.716Z,19.40
2018-08-06T02:02:59.519Z,19.40
2018-08-06T02:05:28.658Z,19.30
2018-08-06T02:07:57.496Z,19.50
2018-08-06T02:10:26.637Z,19.40
2018-08-06T02:12:55.890Z,19.30
2018-08-06T02:15:25.265Z,19.50
2018-08-06T02:17:54.391Z,19.30
2018-08-06T02:20:23.743Z,19.10
2018-08-06T02:22:52.623Z,19.20
2018-08-06T02:25:21.329Z,19.30
2018-08-06T02:27:50.131Z,19.40
2018-08-06T02:30:19.189Z,19.40
2018-08-06T02:32:48.847Z,19.40
2018-08-06T02:35:17.996Z,19.40
2018-08-06T02:37:47.113Z,19.50
2018-08-06T02:40:19.342Z,19.40
2018-08-06T02:42:48.256Z,19.20
2018-08-06T02:45:17.664Z,19.10
2018-08-06T02:47:47.214Z,19.00
2018-08-06T02:50:15.953Z,19.00
2018-08-06T02:52:44.960Z,18.90
2018-08-06T02:55:15.254Z,18.80
2018-08-06T02:57:44.344Z,18.70
2018-08-06T03:00:15.050Z,18.80
2018-08-06T03:02:44.992Z,18.90
2018-08-06T03:05:15.169Z,18.90
2018-08-06T03:07:44.913Z,18.80
2018-08-06T03:10:13.915Z,18.80
2018-08-06T03:12:43.723Z,18.70
2018-08-06T03:15:13.254Z,18.80
2018-08-06T03:17:42.284Z,19.00
2018-08-06T03:20:12.318Z,18.90
2018-08-06T03:22:41.251Z,19.00
2018-08-06T03:25:12.201Z,18.80
2018-08-06T03:27:41.473Z,18.80
2018-08-06T03:30:13.165Z,18.70
2018-08-06T03:32:42.343Z,18.80
2018-08-06T03:35:11.973Z,18.80
2018-08-06T03:37:40.882Z,18.90
2018-08-06T03:40:10.570Z,19.00
2018-08-06T03:42:39.966Z,18.90
2018-08-06T03:45:10.706Z,18.90
2018-08-06T03:47:41.280Z,18.90
2018-08-06T03:50:11.830Z,18.80
2018-08-06T03:52:41.434Z,18.80
2018-08-06T03:55:11.434Z,18.70
2018-08-06T03:57:41.860Z,18.80
2018-08-06T04:00:13.402Z,18.70
2018-08-06T04:02:43.273Z,18.70
2018-08-06T04:05:13.264Z,18.60
2018-08-06T04:07:43.426Z,18.80
2018-08-06T04:10:15.066Z,18.90
2018-08-06T04:12:43.999Z,18.90
2018-08-06T04:15:13.548Z,18.90
2018-08-06T04:17:45.115Z,19.00
2018-08-06T04:20:14.461Z,18.90
2018-08-06T04:25:12.538Z,19.00
2018-08-06T04:27:41.616Z,19.10
2018-08-06T04:30:12.814Z,19.10
2018-08-06T04:32:42.480Z,19.30
2018-08-06T04:35:11.727Z,19.60
2018-08-06T04:37:41.020Z,20.20
2018-08-06T04:40:11.153Z,20.70
2018-08-06T04:42:40.962Z,21.10
2018-08-06T04:45:10.471Z,21.50
2018-08-06T04:47:40.772Z,21.90
2018-08-06T04:50:11.051Z,22.20
2018-08-06T04:52:40.035Z,22.90
2018-08-06T04:55:11.380Z,23.20
2018-08-06T04:57:40.633Z,23.70
2018-08-06T05:00:11.652Z,23.40
2018-08-06T05:02:40.791Z,24.00
2018-08-06T05:05:10.883Z,23.90
2018-08-06T05:07:39.971Z,24.00
2018-08-06T05:10:09.023Z,24.10
2018-08-06T05:12:38.083Z,24.20
2018-08-06T05:15:06.864Z,24.10
2018-08-06T05:17:35.930Z,23.50
2018-08-06T05:20:06.020Z,24.40
2018-08-06T05:22:35.122Z,24.00
2018-08-06T05:25:04.342Z,24.60
2018-08-06T05:27:33.547Z,24.80
2018-08-06T05:30:02.796Z,24.90
2018-08-06T05:32:32.457Z,24.90
2018-08-06T05:35:01.722Z,25.20
2018-08-06T05:37:31.100Z,25.40
2018-08-06T05:40:00.160Z,25.50
2018-08-06T05:42:30.379Z,26.50
2018-08-06T05:44:59.974Z,26.40
2018-08-06T05:49:59.541Z,28.70
2018-08-06T05:52:28.926Z,30.30
2018-08-06T05:54:58.306Z,30.60
2018-08-06T05:57:27.581Z,31.30
2018-08-06T05:59:57.571Z,32.90
2018-08-06T06:02:27.188Z,32.50
2018-08-06T06:04:56.851Z,32.50
2018-08-06T06:07:26.391Z,33.20
2018-08-06T06:09:56.060Z,33.30
2018-08-06T06:12:25.388Z,33.40
2018-08-06T06:14:55.113Z,35.00
2018-08-06T06:17:24.753Z,33.60
2018-08-06T06:19:54.732Z,35.60
2018-08-06T06:22:24.442Z,33.50
2018-08-06T06:24:54.402Z,34.60
2018-08-06T06:27:24.081Z,34.80
2018-08-06T06:29:53.776Z,31.80
2018-08-06T06:32:23.441Z,30.60
2018-08-06T06:34:53.179Z,30.90
2018-08-06T06:37:23.330Z,32.20
2018-08-06T06:39:52.643Z,29.80
2018-08-06T06:42:22.673Z,29.20
2018-08-06T06:44:52.070Z,27.00
2018-08-06T06:47:20.811Z,26.20
2018-08-06T06:49:49.900Z,26.20
2018-08-06T06:52:18.681Z,25.40
2018-08-06T06:54:47.573Z,25.30
2018-08-06T06:57:16.833Z,25.50
2018-08-06T06:59:45.771Z,25.80
2018-08-06T07:02:14.781Z,25.90
2018-08-06T07:04:44.097Z,25.70
2018-08-06T07:07:13.321Z,26.30
2018-08-06T07:09:43.783Z,26.30
2018-08-06T07:12:13.017Z,26.60
2018-08-06T07:14:41.849Z,26.40
2018-08-06T07:17:10.989Z,26.10
2018-08-06T07:19:40.150Z,25.90
2018-08-06T07:22:08.945Z,25.90
2018-08-06T07:24:38.109Z,25.80
2018-08-06T07:27:07.215Z,25.30
2018-08-06T07:29:35.983Z,25.30
2018-08-06T07:32:04.717Z,25.30
2018-08-06T07:34:33.814Z,25.90
2018-08-06T07:37:02.573Z,26.10
2018-08-06T07:39:32.011Z,25.90
2018-08-06T07:42:01.111Z,25.70
2018-08-06T07:44:29.907Z,26.00
2018-08-06T07:46:59.013Z,26.10
2018-08-06T07:49:28.980Z,26.00
2018-08-06T07:51:58.087Z,26.10
2018-08-06T07:54:26.956Z,26.30
2018-08-06T07:56:56.243Z,26.10
2018-08-06T07:59:25.303Z,26.30
2018-08-06T08:01:54.805Z,25.90
2018-08-06T08:04:24.140Z,25.80
2018-08-06T08:06:53.355Z,26.20
2018-08-06T08:09:22.666Z,26.30
2018-08-06T08:11:51.973Z,26.50
2018-08-06T08:14:20.721Z,26.70
2018-08-06T08:16:50.020Z,26.50
2018-08-06T08:19:18.812Z,26.50
2018-08-06T08:21:47.564Z,26.30
2018-08-06T08:24:16.685Z,26.70
2018-08-06T08:26:49.506Z,26.50
2018-08-06T08:29:18.860Z,26.60
2018-08-06T08:31:48.070Z,26.40
2018-08-06T08:34:16.895Z,26.30
2018-08-06T08:36:45.957Z,26.20
2018-08-06T08:39:15.129Z,26.40
2018-08-06T08:41:44.563Z,26.10
2018-08-06T08:44:13.657Z,26.50
2018-08-06T08:46:42.942Z,26.60
2018-08-06T08:49:11.681Z,26.70
2018-08-06T08:51:40.456Z,26.50
2018-08-06T08:54:09.487Z,26.60
2018-08-06T08:56:38.848Z,26.60
2018-08-06T09:01:37.054Z,27.10
2018-08-06T09:04:07.008Z,26.80
2018-08-06T09:06:36.534Z,27.10
2018-08-06T09:09:08.910Z,26.80
2018-08-06T09:11:37.638Z,26.60
2018-08-06T09:14:07.193Z,26.80
2018-08-06T09:16:36.210Z,26.70
2018-08-06T09:19:06.151Z,27.10
2018-08-06T09:21:36.080Z,27.10
2018-08-06T09:24:05.812Z,27.10
2018-08-06T09:26:35.635Z,27.30
2018-08-06T09:29:05.736Z,27.60
2018-08-06T09:31:35.632Z,28.00
2018-08-06T09:34:05.547Z,30.70
2018-08-06T09:36:34.893Z,34.30
2018-08-06T09:39:06.143Z,36.80
2018-08-06T09:41:38.383Z,37.50
2018-08-06T09:44:08.825Z,36.50
2018-08-06T09:46:37.973Z,38.10
2018-08-06T09:49:08.124Z,39.10
2018-08-06T09:51:38.478Z,39.90
2018-08-06T09:54:09.225Z,40.50
2018-08-06T09:59:08.554Z,39.60
2018-08-06T10:04:12.550Z,35.60
2018-08-06T10:06:42.254Z,31.50
2018-08-06T10:09:11.774Z,30.30
2018-08-06T10:11:41.606Z,29.30
2018-08-06T10:14:11.335Z,28.90
2018-08-06T10:16:40.834Z,29.10
2018-08-06T10:19:10.959Z,28.30
2018-08-06T10:21:40.438Z,28.60
2018-08-06T10:24:10.149Z,28.70
2018-08-06T10:26:40.154Z,27.80
2018-08-06T10:29:09.497Z,27.80
2018-08-06T10:31:38.793Z,28.00
2018-08-06T10:34:08.150Z,27.70
2018-08-06T10:36:37.842Z,27.60
2018-08-06T10:39:09.620Z,27.30
2018-08-06T10:41:39.519Z,27.70
2018-08-06T10:44:09.228Z,27.80
2018-08-06T10:46:38.594Z,28.00
2018-08-06T10:49:07.901Z,27.60
2018-08-06T10:51:37.593Z,28.00
2018-08-06T10:54:06.936Z,28.10
2018-08-06T10:56:36.914Z,28.30
2018-08-06T10:59:06.651Z,28.00
